createdAt,value
2018-07-07T00:01:06.833Z,0.00
2018-07-07T00:02:38.403Z,0.00
2018-07-07T00:04:09.975Z,0.00
2018-07-07T00:05:41.546Z,0.00
2018-07-07T00:08:44.790Z,0.00
2018-07-07T00:10:16.262Z,0.00
2018-07-07T00:11:47.834Z,0.00
2018-07-07T00:13:19.406Z,0.00
2018-07-07T00:14:50.978Z,0.00
2018-07-07T00:16:22.551Z,0.00
2018-07-07T00:17:54.121Z,0.00
2018-07-07T00:19:25.693Z,0.00
2018-07-07T00:20:57.269Z,0.00
2018-07-07T00:22:28.837Z,0.00
2018-07-07T00:24:00.409Z,0.00
2018-07-07T00:25:31.980Z,0.00
2018-07-07T00:27:03.904Z,0.00
2018-07-07T00:28:35.124Z,0.00
2018-07-07T00:30:06.695Z,0.00
2018-07-07T00:31:38.266Z,0.00
2018-07-07T00:33:09.838Z,0.00
2018-07-07T00:34:41.410Z,0.00
2018-07-07T00:36:12.981Z,0.00
2018-07-07T00:37:44.553Z,0.00
2018-07-07T00:39:16.275Z,0.00
2018-07-07T00:40:47.698Z,0.00
2018-07-07T00:42:19.267Z,0.00
2018-07-07T00:43:50.839Z,0.00
2018-07-07T00:45:22.513Z,0.00
2018-07-07T00:46:53.982Z,0.00
2018-07-07T00:48:25.554Z,0.00
2018-07-07T00:49:57.125Z,0.00
2018-07-07T00:51:28.696Z,0.00
2018-07-07T00:53:00.268Z,0.00
2018-07-07T00:54:31.948Z,0.00
2018-07-07T00:56:03.410Z,0.00
2018-07-07T00:57:35.232Z,0.00
2018-07-07T00:59:06.553Z,0.00
2018-07-07T01:00:38.125Z,0.00
2018-07-07T01:02:09.696Z,0.00
2018-07-07T01:03:41.368Z,0.00
2018-07-07T01:05:12.838Z,0.00
2018-07-07T01:06:44.409Z,0.00
2018-07-07T01:08:15.983Z,0.00
2018-07-07T01:09:47.552Z,0.00
2018-07-07T01:11:19.123Z,0.00
2018-07-07T01:12:50.695Z,0.00
2018-07-07T01:14:22.266Z,0.00
2018-07-07T01:15:53.837Z,0.00
2018-07-07T01:17:25.417Z,0.00
2018-07-07T01:18:56.980Z,0.00
2018-07-07T01:20:28.552Z,0.00
2018-07-07T01:22:00.924Z,0.00
2018-07-07T01:23:31.694Z,0.00
2018-07-07T01:25:03.266Z,0.00
2018-07-07T01:26:34.837Z,0.00
2018-07-07T01:28:06.508Z,0.00
2018-07-07T01:29:37.979Z,0.00
2018-07-07T01:31:09.551Z,0.00
2018-07-07T01:32:41.124Z,0.00
2018-07-07T01:34:12.694Z,0.00
2018-07-07T01:35:44.267Z,0.00
2018-07-07T01:37:15.837Z,0.00
2018-07-07T01:38:47.409Z,0.00
2018-07-07T01:40:19.080Z,0.00
2018-07-07T01:41:50.552Z,0.00
2018-07-07T01:43:22.125Z,0.00
2018-07-07T01:44:53.695Z,0.00
2018-07-07T01:46:25.267Z,0.00
2018-07-07T01:47:56.837Z,0.00
2018-07-07T01:49:28.409Z,0.00
2018-07-07T01:50:59.980Z,0.00
2018-07-07T01:52:31.652Z,0.00
2018-07-07T01:54:03.123Z,0.00
2018-07-07T01:55:34.695Z,0.00
2018-07-07T01:57:06.267Z,0.00
2018-07-07T01:58:38.237Z,0.00
2018-07-07T02:00:09.408Z,0.00
2018-07-07T02:01:40.979Z,0.00
2018-07-07T02:03:12.550Z,0.00
2018-07-07T02:04:44.125Z,0.00
2018-07-07T02:06:15.693Z,0.00
2018-07-07T02:07:47.264Z,0.00
2018-07-07T02:09:18.836Z,0.00
2018-07-07T02:10:50.561Z,0.00
2018-07-07T02:12:21.978Z,0.00
2018-07-07T02:13:53.549Z,0.00
2018-07-07T02:15:25.122Z,0.00
2018-07-07T02:16:56.791Z,0.00
2018-07-07T02:18:28.792Z,0.00
2018-07-07T02:19:59.832Z,0.00
2018-07-07T02:21:31.403Z,0.00
2018-07-07T02:23:03.325Z,0.00
2018-07-07T02:24:34.548Z,0.00
2018-07-07T02:26:06.116Z,0.00
2018-07-07T02:27:37.688Z,0.00
2018-07-07T02:29:09.508Z,0.00
2018-07-07T02:30:40.830Z,0.00
2018-07-07T02:32:12.401Z,0.00
2018-07-07T02:33:43.971Z,0.00
2018-07-07T02:35:15.643Z,0.00
2018-07-07T02:36:47.118Z,0.00
2018-07-07T02:38:18.685Z,0.00
2018-07-07T02:39:50.259Z,0.00
2018-07-07T02:41:21.826Z,0.00
2018-07-07T02:42:53.402Z,0.00
2018-07-07T02:44:24.968Z,0.00
2018-07-07T02:45:56.539Z,0.00
2018-07-07T02:47:28.261Z,0.00
2018-07-07T02:48:59.681Z,0.00
2018-07-07T02:50:31.252Z,0.00
2018-07-07T02:52:02.822Z,0.00
2018-07-07T02:53:34.646Z,0.00
2018-07-07T02:55:05.964Z,0.00
2018-07-07T02:56:37.536Z,0.00
2018-07-07T02:58:09.107Z,0.00
2018-07-07T02:59:40.679Z,0.00
2018-07-07T03:01:12.248Z,0.00
2018-07-07T03:02:43.820Z,0.00
2018-07-07T03:04:15.391Z,0.00
2018-07-07T03:05:46.962Z,0.00
2018-07-07T03:07:18.536Z,0.00
2018-07-07T03:08:50.105Z,0.00
2018-07-07T03:10:21.675Z,0.00
2018-07-07T03:11:53.345Z,0.00
2018-07-07T03:13:24.818Z,0.00
2018-07-07T03:14:56.387Z,0.00
2018-07-07T03:16:27.963Z,0.00
2018-07-07T03:17:59.527Z,0.00
2018-07-07T03:19:31.098Z,0.00
2018-07-07T03:21:02.679Z,0.00
2018-07-07T03:22:34.241Z,0.00
2018-07-07T03:24:05.812Z,0.00
2018-07-07T03:25:37.382Z,0.00
2018-07-07T03:27:08.954Z,0.00
2018-07-07T03:28:40.525Z,0.00
2018-07-07T03:30:12.301Z,0.00
2018-07-07T03:31:43.667Z,0.00
2018-07-07T03:33:15.238Z,0.00
2018-07-07T03:34:46.808Z,0.00
2018-07-07T03:36:18.380Z,0.00
2018-07-07T03:37:49.950Z,0.00
2018-07-07T03:39:21.521Z,0.00
2018-07-07T03:40:53.092Z,0.00
2018-07-07T03:42:24.664Z,0.00
2018-07-07T03:43:56.234Z,0.00
2018-07-07T03:45:27.805Z,0.00
2018-07-07T03:46:59.376Z,0.00
2018-07-07T03:48:31.047Z,0.00
2018-07-07T03:50:02.519Z,0.00
2018-07-07T03:51:34.090Z,0.00
2018-07-07T03:53:05.660Z,0.00
2018-07-07T03:54:37.232Z,0.00
2018-07-07T03:56:08.803Z,0.00
2018-07-07T03:57:40.376Z,0.00
2018-07-07T03:59:11.944Z,0.00
2018-07-07T04:00:43.618Z,0.00
2018-07-07T04:02:15.087Z,0.00
2018-07-07T04:03:46.660Z,0.00
2018-07-07T04:05:18.228Z,0.00
2018-07-07T04:06:49.900Z,0.00
2018-07-07T04:08:21.370Z,0.00
2018-07-07T04:09:52.942Z,0.00
2018-07-07T04:11:24.514Z,0.00
2018-07-07T04:12:56.088Z,0.00
2018-07-07T04:14:27.657Z,0.00
2018-07-07T04:15:59.226Z,0.00
2018-07-07T04:17:30.797Z,0.00
2018-07-07T04:19:02.370Z,0.00
2018-07-07T04:20:33.939Z,0.00
2018-07-07T04:22:05.551Z,0.00
2018-07-07T04:23:37.081Z,0.00
2018-07-07T04:25:08.753Z,0.00
2018-07-07T04:26:40.222Z,0.00
2018-07-07T04:28:11.794Z,0.00
2018-07-07T04:29:43.368Z,0.00
2018-07-07T04:31:14.937Z,0.00
2018-07-07T04:32:46.518Z,0.00
2018-07-07T04:34:18.084Z,0.00
2018-07-07T04:35:49.651Z,0.00
2018-07-07T04:37:21.222Z,0.00
2018-07-07T04:38:52.794Z,0.00
2018-07-07T04:40:24.363Z,0.00
2018-07-07T04:41:55.937Z,0.00
2018-07-07T04:43:27.606Z,0.00
2018-07-07T04:44:59.077Z,0.00
2018-07-07T04:46:30.651Z,0.00
2018-07-07T04:48:02.219Z,0.00
2018-07-07T04:49:33.792Z,0.00
2018-07-07T04:51:05.361Z,0.00
2018-07-07T04:52:36.932Z,0.00
2018-07-07T04:54:08.503Z,0.00
2018-07-07T04:55:40.075Z,0.00
2018-07-07T04:57:11.645Z,0.00
2018-07-07T04:58:43.220Z,0.00
2018-07-07T05:00:14.787Z,0.00
2018-07-07T05:01:46.459Z,0.00
2018-07-07T05:03:17.929Z,0.00
2018-07-07T05:04:49.501Z,0.00
2018-07-07T05:06:21.071Z,0.00
2018-07-07T05:07:52.642Z,0.00
2018-07-07T05:09:24.212Z,0.00
2018-07-07T05:10:55.784Z,0.00
2018-07-07T05:12:27.355Z,0.00
2018-07-07T05:13:58.926Z,0.00
2018-07-07T05:15:30.553Z,0.00
2018-07-07T05:17:02.068Z,0.00
2018-07-07T05:18:33.638Z,0.00
2018-07-07T05:20:05.310Z,0.00
2018-07-07T05:21:36.784Z,0.00
2018-07-07T05:23:08.357Z,0.00
2018-07-07T05:24:39.922Z,0.00
2018-07-07T05:26:11.607Z,0.00
2018-07-07T05:27:43.067Z,0.00
2018-07-07T05:29:14.635Z,0.00
2018-07-07T05:30:46.206Z,0.00
2018-07-07T05:32:17.776Z,0.00
2018-07-07T05:33:49.347Z,0.00
2018-07-07T05:35:20.918Z,0.00
2018-07-07T05:36:52.489Z,0.00
2018-07-07T05:38:24.160Z,0.00
2018-07-07T05:39:55.630Z,0.00
2018-07-07T05:41:27.202Z,0.00
2018-07-07T05:42:58.772Z,0.00
2018-07-07T05:44:30.343Z,0.00
2018-07-07T05:46:01.914Z,0.00
2018-07-07T05:47:33.485Z,0.00
2018-07-07T05:49:05.057Z,0.00
2018-07-07T05:50:36.626Z,0.00
2018-07-07T05:52:08.197Z,0.00
2018-07-07T05:53:39.767Z,0.00
2018-07-07T05:55:11.339Z,0.00
2018-07-07T05:56:43.010Z,0.00
2018-07-07T05:58:14.480Z,0.00
2018-07-07T05:59:46.050Z,0.00
2018-07-07T06:01:17.621Z,0.00
2018-07-07T06:02:49.295Z,0.00
2018-07-07T06:04:20.763Z,0.00
2018-07-07T06:05:52.334Z,0.00
2018-07-07T06:07:23.904Z,0.00
2018-07-07T06:08:55.476Z,0.00
2018-07-07T06:10:27.047Z,0.00
2018-07-07T06:11:58.617Z,0.00
2018-07-07T06:13:30.187Z,0.00
2018-07-07T06:15:01.859Z,0.00
2018-07-07T06:16:33.331Z,0.00
2018-07-07T06:18:04.902Z,0.00
2018-07-07T06:19:36.503Z,0.00
2018-07-07T06:21:08.043Z,0.00
2018-07-07T06:22:39.615Z,0.00
2018-07-07T06:24:11.184Z,0.00
2018-07-07T06:25:42.758Z,0.00
2018-07-07T06:27:14.328Z,0.00
2018-07-07T06:28:45.900Z,0.00
2018-07-07T06:30:17.468Z,0.00
2018-07-07T06:31:49.040Z,0.00
2018-07-07T06:33:21.010Z,0.00
2018-07-07T06:34:52.180Z,0.00
2018-07-07T06:36:23.751Z,0.00
2018-07-07T06:37:55.321Z,0.00
2018-07-07T06:39:26.991Z,0.00
2018-07-07T06:40:58.462Z,0.00
2018-07-07T06:42:30.033Z,0.00
2018-07-07T06:44:01.603Z,0.00
2018-07-07T06:45:33.173Z,0.00
2018-07-07T06:47:04.744Z,0.00
2018-07-07T06:48:36.314Z,0.00
2018-07-07T06:50:07.888Z,0.00
2018-07-07T06:51:39.555Z,0.00
2018-07-07T06:53:11.025Z,0.00
2018-07-07T06:54:42.596Z,0.00
2018-07-07T06:56:14.166Z,0.00
2018-07-07T06:57:45.737Z,0.00
2018-07-07T06:59:17.306Z,0.00
2018-07-07T07:00:48.877Z,0.00
2018-07-07T07:02:20.447Z,0.00
2018-07-07T07:03:52.018Z,0.00
2018-07-07T07:05:23.588Z,0.00
2018-07-07T07:06:55.161Z,0.00
2018-07-07T07:08:26.728Z,0.00
2018-07-07T07:09:58.499Z,0.00
2018-07-07T07:11:29.870Z,0.00
2018-07-07T07:13:01.440Z,0.00
2018-07-07T07:14:33.010Z,0.00
2018-07-07T07:16:04.580Z,0.00
2018-07-07T07:17:36.151Z,0.00
2018-07-07T07:19:07.722Z,0.00
2018-07-07T07:20:39.296Z,0.00
2018-07-07T07:22:10.862Z,0.00
2018-07-07T07:23:42.432Z,0.00
2018-07-07T07:25:14.006Z,0.00
2018-07-07T07:26:45.572Z,0.00
2018-07-07T07:28:17.248Z,0.00
2018-07-07T07:29:48.713Z,0.00
2018-07-07T07:31:20.283Z,0.00
2018-07-07T07:32:51.853Z,0.00
2018-07-07T07:34:23.437Z,0.00
2018-07-07T07:35:55.010Z,0.00
2018-07-07T07:37:26.563Z,0.00
2018-07-07T07:38:58.137Z,0.00
2018-07-07T07:40:29.804Z,0.00
2018-07-07T07:42:01.274Z,0.00
2018-07-07T07:43:32.843Z,0.00
2018-07-07T07:45:04.414Z,0.00
2018-07-07T07:46:36.084Z,0.00
2018-07-07T07:48:07.554Z,0.00
2018-07-07T07:49:39.124Z,0.00
2018-07-07T07:51:10.693Z,0.00
2018-07-07T07:52:42.316Z,0.00
2018-07-07T07:54:13.833Z,0.00
2018-07-07T07:55:45.405Z,0.00
2018-07-07T07:57:16.973Z,0.00
2018-07-07T07:58:48.544Z,0.00
2018-07-07T08:00:20.113Z,0.00
2018-07-07T08:01:51.682Z,0.00
2018-07-07T08:03:23.253Z,0.00
2018-07-07T08:04:55.249Z,0.00
2018-07-07T08:06:26.391Z,0.00
2018-07-07T08:07:57.961Z,0.00
2018-07-07T08:09:29.531Z,0.00
2018-07-07T08:11:01.201Z,0.00
2018-07-07T08:12:32.670Z,0.00
2018-07-07T08:14:04.281Z,0.00
2018-07-07T08:15:35.813Z,0.00
2018-07-07T08:17:07.380Z,0.00
2018-07-07T08:18:38.948Z,0.00
2018-07-07T08:20:10.518Z,0.00
2018-07-07T08:21:42.088Z,0.00
2018-07-07T08:23:13.759Z,0.00
2018-07-07T08:24:45.227Z,0.00
2018-07-07T08:26:16.800Z,0.00
2018-07-07T08:27:48.369Z,0.00
2018-07-07T08:29:19.942Z,0.00
2018-07-07T08:30:51.506Z,0.00
2018-07-07T08:32:23.075Z,0.00
2018-07-07T08:33:54.644Z,0.00
2018-07-07T08:35:26.223Z,0.00
2018-07-07T08:36:57.783Z,0.00
2018-07-07T08:38:29.360Z,0.00
2018-07-07T08:40:00.923Z,0.00
2018-07-07T08:41:32.592Z,0.00
2018-07-07T08:43:04.062Z,0.00
2018-07-07T08:44:35.630Z,0.00
2018-07-07T08:46:07.200Z,0.00
2018-07-07T08:47:38.770Z,0.00
2018-07-07T08:49:10.340Z,0.00
2018-07-07T08:50:41.908Z,0.00
2018-07-07T08:52:13.478Z,0.00
2018-07-07T08:53:45.048Z,0.00
2018-07-07T08:55:16.617Z,0.00
2018-07-07T08:56:48.189Z,0.00
2018-07-07T08:58:19.756Z,0.00
2018-07-07T08:59:51.425Z,0.00
2018-07-07T09:01:22.894Z,0.00
2018-07-07T09:02:54.463Z,0.00
2018-07-07T09:04:26.034Z,0.00
2018-07-07T09:05:57.852Z,0.00
2018-07-07T09:07:29.171Z,0.00
2018-07-07T09:09:00.741Z,0.00
2018-07-07T09:10:32.309Z,0.00
2018-07-07T09:12:03.979Z,0.00
2018-07-07T09:13:35.449Z,0.00
2018-07-07T09:15:07.018Z,0.00
2018-07-07T09:16:38.588Z,0.00
2018-07-07T09:18:10.256Z,0.00
2018-07-07T09:19:41.726Z,0.00
2018-07-07T09:21:13.349Z,4.00
2018-07-07T09:22:44.864Z,0.00
2018-07-07T09:24:16.434Z,4.00
2018-07-07T09:25:48.004Z,4.00
2018-07-07T09:27:19.572Z,8.00
2018-07-07T09:28:51.142Z,8.00
2018-07-07T09:30:22.712Z,8.00
2018-07-07T09:31:54.281Z,16.00
2018-07-07T09:33:25.850Z,24.00
2018-07-07T09:34:57.421Z,32.00
2018-07-07T09:36:29.340Z,48.00
2018-07-07T09:38:00.559Z,72.00
2018-07-07T09:39:32.135Z,104.00
2018-07-07T09:41:03.701Z,144.00
2018-07-07T09:42:35.368Z,196.00
2018-07-07T09:44:06.908Z,248.00
2018-07-07T09:45:38.406Z,292.00
2018-07-07T09:47:09.975Z,344.00
2018-07-07T09:48:41.545Z,392.00
2018-07-07T09:50:13.115Z,460.00
2018-07-07T09:51:44.683Z,548.00
2018-07-07T09:53:16.255Z,644.00
2018-07-07T09:54:48.424Z,748.00
2018-07-07T09:56:19.418Z,864.00
2018-07-07T09:57:50.961Z,996.00
2018-07-07T09:59:22.530Z,1164.00
2018-07-07T10:00:54.099Z,1348.00
2018-07-07T10:02:25.677Z,1572.00
2018-07-07T10:03:57.238Z,1812.00
2018-07-07T10:05:28.807Z,2000.00
2018-07-07T10:07:00.628Z,2196.00
2018-07-07T10:08:31.949Z,2404.00
2018-07-07T10:10:03.516Z,2640.00
2018-07-07T10:11:35.086Z,2884.00
2018-07-07T10:13:06.905Z,3160.00
2018-07-07T10:16:09.794Z,3728.00
2018-07-07T10:17:41.366Z,3900.00
2018-07-07T10:19:12.933Z,4308.00
2018-07-07T10:20:44.527Z,4584.00
2018-07-07T10:22:16.077Z,4936.00
2018-07-07T10:23:48.175Z,4952.00
2018-07-07T10:25:19.214Z,4976.00
2018-07-07T10:26:50.783Z,4756.00
2018-07-07T10:28:22.356Z,4916.00
2018-07-07T10:31:25.943Z,5640.00
2018-07-07T10:32:57.065Z,6424.00
2018-07-07T10:34:28.658Z,7656.00
2018-07-07T10:37:31.846Z,7684.00
2018-07-07T10:39:03.352Z,7668.00
2018-07-07T10:40:34.923Z,8288.00
2018-07-07T10:42:06.493Z,9388.00
2018-07-07T10:43:38.573Z,10416.00
2018-07-07T10:45:09.637Z,10712.00
2018-07-07T10:46:41.513Z,11028.00
2018-07-07T10:48:12.782Z,11136.00
2018-07-07T10:49:44.454Z,11900.00
2018-07-07T10:51:15.927Z,12488.00
2018-07-07T10:52:47.500Z,13096.00
2018-07-07T10:54:19.074Z,13692.00
2018-07-07T10:55:50.647Z,14032.00
2018-07-07T10:57:22.222Z,14252.00
2018-07-07T10:58:54.097Z,14400.00
2018-07-07T11:00:25.372Z,14388.00
2018-07-07T11:01:56.947Z,14988.00
2018-07-07T11:03:28.522Z,15132.00
2018-07-07T11:05:00.097Z,15756.00
2018-07-07T11:06:31.675Z,15532.00
2018-07-07T11:08:03.350Z,17276.00
2018-07-07T11:09:34.850Z,18656.00
2018-07-07T11:11:06.404Z,19136.00
2018-07-07T11:12:38.715Z,19488.00
2018-07-07T11:14:09.862Z,19648.00
2018-07-07T11:15:41.139Z,19808.00
2018-07-07T11:18:44.292Z,19072.00
2018-07-07T11:21:47.451Z,18240.00
2018-07-07T11:23:19.027Z,17184.00
2018-07-07T11:24:50.607Z,18240.00
2018-07-07T11:26:22.185Z,18144.00
2018-07-07T11:27:54.067Z,18688.00
2018-07-07T11:29:25.342Z,18208.00
2018-07-07T11:30:56.922Z,18208.00
2018-07-07T11:32:28.500Z,17316.00
2018-07-07T11:35:31.658Z,15948.00
2018-07-07T11:37:03.343Z,15328.00
2018-07-07T11:38:34.816Z,14884.00
2018-07-07T11:40:06.395Z,17240.00
2018-07-07T11:41:37.972Z,16340.00
2018-07-07T11:43:10.084Z,15304.00
2018-07-07T11:44:41.130Z,17064.00
2018-07-07T11:46:12.709Z,16748.00
2018-07-07T11:47:44.536Z,17012.00
2018-07-07T11:50:47.445Z,20224.00
2018-07-07T11:52:19.020Z,20832.00
2018-07-07T11:53:50.598Z,19776.00
2018-07-07T11:56:53.762Z,18912.00
2018-07-07T11:58:25.334Z,22208.00
2018-07-07T11:59:56.913Z,20224.00
2018-07-07T12:01:28.494Z,23488.00
2018-07-07T12:03:00.273Z,28256.00
2018-07-07T12:04:31.734Z,30272.00
2018-07-07T12:06:03.332Z,33792.00
2018-07-07T12:07:34.809Z,34048.00
2018-07-07T12:09:06.389Z,36832.00
2018-07-07T12:10:37.974Z,37824.00
2018-07-07T12:12:10.004Z,40832.00
2018-07-07T12:13:41.135Z,40192.00
2018-07-07T12:15:12.711Z,37952.00
2018-07-07T12:16:44.291Z,35296.00
2018-07-07T12:19:47.497Z,30240.00
2018-07-07T12:21:19.035Z,28064.00
2018-07-07T12:22:50.616Z,26816.00
2018-07-07T12:24:22.198Z,35040.00
2018-07-07T12:25:54.329Z,47904.00
2018-07-07T12:27:25.362Z,54784.00
2018-07-07T12:28:56.940Z,50880.00
2018-07-07T12:30:28.520Z,54464.00
2018-07-07T12:32:00.304Z,44704.00
2018-07-07T12:35:03.263Z,53664.00
2018-07-07T12:36:34.900Z,55744.00
2018-07-07T12:38:06.425Z,54208.00
2018-07-07T12:39:38.007Z,47712.00
2018-07-07T12:41:09.790Z,41600.00
2018-07-07T12:42:41.168Z,40576.00
2018-07-07T12:44:12.849Z,44704.00
2018-07-07T12:45:44.330Z,40096.00
2018-07-07T12:48:47.493Z,38560.00
2018-07-07T12:50:19.376Z,32992.00
2018-07-07T12:51:50.673Z,30912.00
2018-07-07T12:54:53.820Z,40384.00
2018-07-07T12:56:25.397Z,47040.00
2018-07-07T12:57:56.977Z,44800.00
2018-07-07T12:59:28.562Z,58720.00
2018-07-07T13:01:00.139Z,55232.00
2018-07-07T13:02:32.022Z,48800.00
2018-07-07T13:04:03.299Z,44704.00
2018-07-07T13:05:34.880Z,38368.00
2018-07-07T13:07:06.469Z,45248.00
2018-07-07T13:08:38.041Z,36800.00
2018-07-07T13:10:09.927Z,43584.00
2018-07-07T13:11:41.506Z,33760.00
2018-07-07T13:13:12.782Z,39840.00
2018-07-07T13:14:44.612Z,39584.00
2018-07-07T13:16:16.475Z,69056.00
2018-07-07T13:17:47.523Z,70560.00
2018-07-07T13:19:19.110Z,66016.00
2018-07-07T13:20:52.010Z,59840.00
2018-07-07T13:23:54.048Z,40384.00
2018-07-07T13:26:57.008Z,40256.00
2018-07-07T13:28:28.590Z,41920.00
2018-07-07T13:30:00.381Z,48032.00
2018-07-07T13:31:31.755Z,32512.00
2018-07-07T13:33:03.345Z,27648.00
2018-07-07T13:34:34.918Z,33920.00
2018-07-07T13:36:06.494Z,48960.00
2018-07-07T13:37:38.386Z,29600.00
2018-07-07T13:39:09.762Z,28800.00
2018-07-07T13:40:41.239Z,27904.00
2018-07-07T13:42:12.818Z,37504.00
2018-07-07T13:43:44.401Z,31040.00
2018-07-07T13:45:16.270Z,27200.00
2018-07-07T13:46:47.864Z,30304.00
2018-07-07T13:48:19.445Z,39424.00
2018-07-07T13:49:50.722Z,31520.00
2018-07-07T13:51:22.412Z,35680.00
2018-07-07T13:52:54.220Z,32320.00
2018-07-07T13:55:57.045Z,74240.00
2018-07-07T13:57:29.227Z,69824.00
2018-07-07T13:59:00.206Z,57568.00
2018-07-07T14:00:31.789Z,47680.00
2018-07-07T14:02:03.369Z,60832.00
2018-07-07T14:03:34.950Z,62016.00
2018-07-07T14:05:06.533Z,63136.00
2018-07-07T14:06:38.317Z,32160.00
2018-07-07T14:08:09.696Z,43456.00
2018-07-07T14:09:41.278Z,64640.00
2018-07-07T14:11:12.859Z,59680.00
2018-07-07T14:12:44.442Z,75872.00
2018-07-07T14:14:16.079Z,62080.00
2018-07-07T14:15:48.110Z,45984.00
2018-07-07T14:18:50.823Z,64512.00
2018-07-07T14:20:22.406Z,36032.00
2018-07-07T14:23:25.563Z,46848.00
2018-07-07T14:24:57.400Z,43488.00
2018-07-07T14:26:28.679Z,58976.00
2018-07-07T14:28:00.258Z,54272.00
2018-07-07T14:29:32.047Z,51712.00
2018-07-07T14:31:03.421Z,55776.00
2018-07-07T14:32:35.005Z,61120.00
2018-07-07T14:34:06.583Z,70272.00
2018-07-07T14:37:09.947Z,90656.00
2018-07-07T14:38:41.329Z,92256.00
2018-07-07T14:40:12.909Z,85952.00
2018-07-07T14:41:44.493Z,63520.00
2018-07-07T14:43:16.075Z,76160.00
2018-07-07T14:44:47.656Z,72704.00
2018-07-07T14:46:19.239Z,58944.00
2018-07-07T14:47:50.821Z,45728.00
2018-07-07T14:50:53.988Z,77472.00
2018-07-07T14:52:25.873Z,83776.00
2018-07-07T14:53:57.151Z,89664.00
2018-07-07T14:55:28.734Z,61344.00
2018-07-07T14:57:00.717Z,62592.00
2018-07-07T14:58:32.637Z,101248.00
2018-07-07T15:00:03.482Z,94976.00
2018-07-07T15:01:35.802Z,91936.00
2018-07-07T15:03:06.649Z,54240.00
2018-07-07T15:06:10.024Z,98176.00
2018-07-07T15:07:41.397Z,110592.00
2018-07-07T15:09:12.980Z,76704.00
2018-07-07T15:12:16.351Z,48160.00
2018-07-07T15:13:47.733Z,56544.00
2018-07-07T15:15:20.215Z,51232.00
2018-07-07T15:16:51.104Z,57440.00
2018-07-07T15:18:22.480Z,86464.00
2018-07-07T15:19:54.063Z,75392.00
2018-07-07T15:21:25.647Z,91168.00
2018-07-07T15:22:57.318Z,94560.00
2018-07-07T15:24:28.813Z,92064.00
2018-07-07T15:26:00.396Z,87840.00
2018-07-07T15:27:32.080Z,72704.00
2018-07-07T15:29:03.867Z,90304.00
2018-07-07T15:30:35.150Z,88480.00
2018-07-07T15:32:06.731Z,98496.00
2018-07-07T15:33:38.414Z,97760.00
2018-07-07T15:36:41.482Z,67744.00
2018-07-07T15:38:13.069Z,54720.00
2018-07-07T15:39:44.658Z,58624.00
2018-07-07T15:42:48.024Z,101376.00
2018-07-07T15:44:19.603Z,73824.00
2018-07-07T15:45:51.204Z,88416.00
2018-07-07T15:47:22.571Z,74080.00
2018-07-07T15:48:54.355Z,79264.00
2018-07-07T15:51:57.418Z,78528.00
2018-07-07T15:53:28.907Z,54912.00
2018-07-07T15:55:00.485Z,62912.00
2018-07-07T15:56:32.271Z,79616.00
2018-07-07T15:58:04.287Z,88672.00
2018-07-07T15:59:35.236Z,73248.00
2018-07-07T16:01:06.819Z,84768.00
2018-07-07T16:02:38.723Z,80768.00
2018-07-07T16:04:09.987Z,52608.00
2018-07-07T16:07:13.152Z,97280.00
2018-07-07T16:08:45.045Z,76608.00
2018-07-07T16:10:16.419Z,100160.00
2018-07-07T16:13:19.486Z,84448.00
2018-07-07T16:14:51.070Z,85888.00
2018-07-07T16:17:54.238Z,98048.00
2018-07-07T16:19:26.432Z,94368.00
2018-07-07T16:20:57.406Z,95808.00
2018-07-07T16:22:28.990Z,100704.00
2018-07-07T16:24:00.778Z,101056.00
2018-07-07T16:25:32.362Z,88224.00
2018-07-07T16:27:03.743Z,81408.00
2018-07-07T16:28:35.357Z,89600.00
2018-07-07T16:30:07.129Z,86880.00
2018-07-07T16:34:41.669Z,81344.00
2018-07-07T16:36:13.250Z,85312.00
2018-07-07T16:37:44.833Z,87424.00
2018-07-07T16:39:16.417Z,89504.00
2018-07-07T16:40:48.005Z,101152.00
2018-07-07T16:42:20.118Z,94912.00
2018-07-07T16:43:51.169Z,78048.00
2018-07-07T16:45:23.067Z,65056.00
2018-07-07T16:46:54.337Z,75904.00
2018-07-07T16:49:58.137Z,89632.00
2018-07-07T16:53:00.671Z,93152.00
2018-07-07T16:54:32.862Z,87488.00
2018-07-07T16:57:35.423Z,80736.00
2018-07-07T16:59:07.004Z,77376.00
2018-07-07T17:00:38.588Z,83776.00
2018-07-07T17:02:10.171Z,73952.00
2018-07-07T17:03:41.956Z,77984.00
2018-07-07T17:05:13.338Z,79584.00
2018-07-07T17:06:44.920Z,89120.00
2018-07-07T17:08:16.504Z,84448.00
2018-07-07T17:09:48.390Z,78368.00
2018-07-07T17:11:19.671Z,79104.00
2018-07-07T17:12:51.253Z,79776.00
2018-07-07T17:14:22.836Z,68512.00
2018-07-07T17:15:54.420Z,76736.00
2018-07-07T17:17:26.536Z,76032.00
2018-07-07T17:18:58.525Z,73536.00
2018-07-07T17:20:29.170Z,63840.00
2018-07-07T17:22:00.854Z,67296.00
2018-07-07T17:23:32.540Z,51776.00
2018-07-07T17:26:35.502Z,65408.00
2018-07-07T17:28:07.184Z,61920.00
2018-07-07T17:29:38.667Z,70656.00
2018-07-07T17:31:10.252Z,67680.00
2018-07-07T17:32:41.843Z,68288.00
2018-07-07T17:34:13.719Z,59808.00
2018-07-07T17:35:45.001Z,64288.00
2018-07-07T17:37:16.888Z,60224.00
2018-07-07T17:40:20.049Z,60160.00
2018-07-07T17:41:51.329Z,52544.00
2018-07-07T17:43:22.910Z,52448.00
2018-07-07T17:44:54.494Z,47520.00
2018-07-07T17:46:26.378Z,54016.00
2018-07-07T17:47:58.189Z,56736.00
2018-07-07T17:49:29.292Z,57856.00
2018-07-07T17:51:00.822Z,60864.00
2018-07-07T17:52:32.659Z,56160.00
2018-07-07T17:54:04.292Z,51552.00
2018-07-07T17:55:36.102Z,64864.00
2018-07-07T17:57:07.686Z,57888.00
2018-07-07T17:58:38.740Z,63552.00
2018-07-07T18:00:10.321Z,59584.00
2018-07-07T18:03:13.483Z,60096.00
2018-07-07T18:04:45.267Z,64032.00
2018-07-07T18:06:18.578Z,55328.00
2018-07-07T18:07:48.434Z,49152.00
2018-07-07T18:09:20.321Z,52672.00
2018-07-07T18:10:51.397Z,52352.00
2018-07-07T18:12:22.979Z,56832.00
2018-07-07T18:13:54.562Z,58976.00
2018-07-07T18:16:57.727Z,50752.00
2018-07-07T18:18:29.309Z,54944.00
2018-07-07T18:20:00.895Z,51200.00
2018-07-07T18:21:32.474Z,48576.00
2018-07-07T18:23:04.159Z,47808.00
2018-07-07T18:24:35.638Z,40896.00
2018-07-07T18:26:07.220Z,40224.00
2018-07-07T18:27:38.802Z,35360.00
2018-07-07T18:29:10.386Z,34496.00
2018-07-07T18:30:42.270Z,32416.00
2018-07-07T18:32:13.859Z,34368.00
2018-07-07T18:33:45.129Z,28704.00
2018-07-07T18:35:16.710Z,29760.00
2018-07-07T18:36:48.595Z,33696.00
2018-07-07T18:39:51.454Z,42592.00
2018-07-07T18:41:23.135Z,43808.00
2018-07-07T18:42:54.615Z,44800.00
2018-07-07T18:44:26.400Z,35520.00
2018-07-07T18:45:58.284Z,36352.00
2018-07-07T18:47:29.362Z,36672.00
2018-07-07T18:49:00.939Z,36768.00
2018-07-07T18:50:32.519Z,28288.00
2018-07-07T18:52:05.111Z,25600.00
2018-07-07T18:55:07.266Z,27488.00
2018-07-07T18:56:38.852Z,24160.00
2018-07-07T18:58:10.427Z,23648.00
2018-07-07T18:59:42.005Z,23392.00
2018-07-07T19:01:13.686Z,20896.00
2018-07-07T19:02:45.166Z,17504.00
2018-07-07T19:04:16.746Z,17184.00
2018-07-07T19:05:48.327Z,15752.00
2018-07-07T19:08:51.489Z,20192.00
2018-07-07T19:10:23.067Z,20352.00
2018-07-07T19:11:54.647Z,19872.00
2018-07-07T19:13:26.227Z,20032.00
2018-07-07T19:14:58.015Z,18656.00
2018-07-07T19:16:29.387Z,19008.00
2018-07-07T19:18:00.971Z,20416.00
2018-07-07T19:19:32.547Z,15256.00
2018-07-07T19:21:04.227Z,17984.00
2018-07-07T19:22:35.709Z,21856.00
2018-07-07T19:24:07.286Z,21472.00
2018-07-07T19:25:38.865Z,21856.00
2018-07-07T19:27:10.750Z,22560.00
2018-07-07T19:28:42.059Z,24512.00
2018-07-07T19:30:14.210Z,26432.00
2018-07-07T19:31:45.183Z,27168.00
2018-07-07T19:33:16.765Z,21760.00
2018-07-07T19:34:48.343Z,22976.00
2018-07-07T19:36:19.921Z,24896.00
2018-07-07T19:37:51.500Z,20704.00
2018-07-07T19:39:24.122Z,20992.00
2018-07-07T19:40:54.659Z,15872.00
2018-07-07T19:42:26.238Z,15168.00
2018-07-07T19:43:58.269Z,14208.00
2018-07-07T19:45:29.598Z,14720.00
2018-07-07T19:47:02.087Z,13440.00
2018-07-07T19:50:04.666Z,11500.00
2018-07-07T19:51:35.711Z,9552.00
2018-07-07T19:53:07.289Z,9068.00
2018-07-07T19:54:38.867Z,9240.00
2018-07-07T19:56:10.445Z,8992.00
2018-07-07T19:57:42.127Z,8272.00
2018-07-07T19:59:13.604Z,8172.00
2018-07-07T20:00:45.181Z,8220.00
2018-07-07T20:02:16.765Z,7764.00
2018-07-07T20:03:48.338Z,7060.00
2018-07-07T20:05:19.915Z,6496.00
2018-07-07T20:06:51.498Z,5820.00
2018-07-07T20:08:23.070Z,5124.00